sensor_id;sensor_type;location;lat;lon;timestamp;P1;durP1;ratioP1;P2;durP2;ratioP2
58214;SDS011;44011;52.218;1.480;2022-08-16T00:01:58;7.45;;;5.05;;
58214;SDS011;44011;52.218;1.480;2022-08-16T00:04:24;6.05;;;4.63;;
58214;SDS011;44011;52.218;1.480;2022-08-16T00:06:49;6.93;;;4.68;;
58214;SDS011;44011;52.218;1.480;2022-08-16T00:09:15;5.88;;;5.03;;
58214;SDS011;44011;52.218;1.480;2022-08-16T00:11:41;8.27;;;5.40;;
58214;SDS011;44011;52.218;1.480;2022-08-16T00:14:09;15.70;;;5.70;;
58214;SDS011;44011;52.218;1.480;2022-08-16T00:16:38;6.47;;;5.45;;
58214;SDS011;44011;52.218;1.480;2022-08-16T00:19:04;7.45;;;5.60;;
58214;SDS011;44011;52.218;1.480;2022-08-16T00:21:29;6.18;;;5.53;;
58214;SDS011;44011;52.218;1.480;2022-08-16T00:23:56;5.68;;;4.93;;
58214;SDS011;44011;52.218;1.480;2022-08-16T00:26:21;7.15;;;5.50;;
58214;SDS011;44011;52.218;1.480;2022-08-16T00:28:47;6.63;;;5.47;;
58214;SDS011;44011;52.218;1.480;2022-08-16T00:31:13;8.60;;;5.38;;
58214;SDS011;44011;52.218;1.480;2022-08-16T00:33:38;6.90;;;5.90;;
58214;SDS011;44011;52.218;1.480;2022-08-16T00:36:04;6.50;;;5.43;;
58214;SDS011;44011;52.218;1.480;2022-08-16T00:38:30;6.78;;;5.60;;
58214;SDS011;44011;52.218;1.480;2022-08-16T00:40:55;7.20;;;5.65;;
58214;SDS011;44011;52.218;1.480;2022-08-16T00:46:00;6.47;;;5.80;;
58214;SDS011;44011;52.218;1.480;2022-08-16T00:48:32;6.68;;;6.07;;
58214;SDS011;44011;52.218;1.480;2022-08-16T00:51:01;6.38;;;5.57;;
58214;SDS011;44011;52.218;1.480;2022-08-16T00:53:27;6.75;;;5.68;;
58214;SDS011;44011;52.218;1.480;2022-08-16T00:55:54;8.27;;;5.90;;
58214;SDS011;44011;52.218;1.480;2022-08-16T00:58:22;11.10;;;6.03;;
58214;SDS011;44011;52.218;1.480;2022-08-16T01:00:49;7.25;;;5.82;;
58214;SDS011;44011;52.218;1.480;2022-08-16T01:03:15;10.05;;;6.15;;
58214;SDS011;44011;52.218;1.480;2022-08-16T01:05:43;6.55;;;6.05;;
58214;SDS011;44011;52.218;1.480;2022-08-16T01:08:10;6.82;;;6.07;;
58214;SDS011;44011;52.218;1.480;2022-08-16T01:10:37;7.85;;;6.30;;
58214;SDS011;44011;52.218;1.480;2022-08-16T01:13:10;9.60;;;6.60;;
58214;SDS011;44011;52.218;1.480;2022-08-16T01:15:40;15.50;;;6.35;;
58214;SDS011;44011;52.218;1.480;2022-08-16T01:18:10;7.15;;;6.45;;
58214;SDS011;44011;52.218;1.480;2022-08-16T01:20:40;10.82;;;6.40;;
58214;SDS011;44011;52.218;1.480;2022-08-16T01:23:10;6.85;;;6.32;;
58214;SDS011;44011;52.218;1.480;2022-08-16T01:25:40;7.95;;;6.55;;
58214;SDS011;44011;52.218;1.480;2022-08-16T01:28:08;7.07;;;6.10;;
58214;SDS011;44011;52.218;1.480;2022-08-16T01:30:37;6.90;;;6.30;;
58214;SDS011;44011;52.218;1.480;2022-08-16T01:33:05;7.85;;;6.55;;
58214;SDS011;44011;52.218;1.480;2022-08-16T01:35:35;8.07;;;7.28;;
58214;SDS011;44011;52.218;1.480;2022-08-16T01:38:20;7.10;;;6.40;;
58214;SDS011;44011;52.218;1.480;2022-08-16T01:40:52;6.82;;;6.22;;
58214;SDS011;44011;52.218;1.480;2022-08-16T01:43:21;6.82;;;6.13;;
58214;SDS011;44011;52.218;1.480;2022-08-16T01:45:52;7.43;;;6.72;;
58214;SDS011;44011;52.218;1.480;2022-08-16T01:48:21;8.25;;;7.22;;
58214;SDS011;44011;52.218;1.480;2022-08-16T01:50:50;7.80;;;6.68;;
58214;SDS011;44011;52.218;1.480;2022-08-16T01:53:16;7.47;;;6.78;;
58214;SDS011;44011;52.218;1.480;2022-08-16T01:55:42;7.63;;;6.82;;
58214;SDS011;44011;52.218;1.480;2022-08-16T01:58:10;8.02;;;7.15;;
58214;SDS011;44011;52.218;1.480;2022-08-16T02:00:39;8.27;;;7.18;;
58214;SDS011;44011;52.218;1.480;2022-08-16T02:03:04;11.20;;;7.30;;
58214;SDS011;44011;52.218;1.480;2022-08-16T02:05:30;8.98;;;6.78;;
58214;SDS011;44011;52.218;1.480;2022-08-16T02:07:56;8.13;;;7.30;;
58214;SDS011;44011;52.218;1.480;2022-08-16T02:10:22;8.02;;;7.05;;
58214;SDS011;44011;52.218;1.480;2022-08-16T02:12:49;8.18;;;7.38;;
58214;SDS011;44011;52.218;1.480;2022-08-16T02:15:15;9.30;;;6.88;;
58214;SDS011;44011;52.218;1.480;2022-08-16T02:17:42;8.20;;;7.50;;
58214;SDS011;44011;52.218;1.480;2022-08-16T02:20:09;8.52;;;7.72;;
58214;SDS011;44011;52.218;1.480;2022-08-16T02:22:34;7.32;;;6.72;;
58214;SDS011;44011;52.218;1.480;2022-08-16T02:25:01;8.02;;;7.20;;
58214;SDS011;44011;52.218;1.480;2022-08-16T02:27:30;9.50;;;7.97;;
58214;SDS011;44011;52.218;1.480;2022-08-16T02:29:55;11.93;;;7.32;;
58214;SDS011;44011;52.218;1.480;2022-08-16T02:32:21;8.27;;;7.47;;
58214;SDS011;44011;52.218;1.480;2022-08-16T02:34:47;9.60;;;7.93;;
58214;SDS011;44011;52.218;1.480;2022-08-16T02:37:12;8.38;;;7.13;;
58214;SDS011;44011;52.218;1.480;2022-08-16T02:39:38;7.68;;;6.95;;
58214;SDS011;44011;52.218;1.480;2022-08-16T02:42:04;7.72;;;6.93;;
58214;SDS011;44011;52.218;1.480;2022-08-16T02:44:30;10.88;;;8.38;;
58214;SDS011;44011;52.218;1.480;2022-08-16T02:46:55;8.25;;;7.45;;
58214;SDS011;44011;52.218;1.480;2022-08-16T02:49:21;8.98;;;8.07;;
58214;SDS011;44011;52.218;1.480;2022-08-16T02:51:47;9.07;;;8.18;;
58214;SDS011;44011;52.218;1.480;2022-08-16T02:54:13;9.15;;;7.72;;
58214;SDS011;44011;52.218;1.480;2022-08-16T02:56:39;12.10;;;8.23;;
58214;SDS011;44011;52.218;1.480;2022-08-16T02:59:05;8.27;;;7.38;;
58214;SDS011;44011;52.218;1.480;2022-08-16T03:01:32;8.52;;;7.60;;
58214;SDS011;44011;52.218;1.480;2022-08-16T03:03:58;11.82;;;8.38;;
58214;SDS011;44011;52.218;1.480;2022-08-16T03:06:24;9.60;;;7.32;;
58214;SDS011;44011;52.218;1.480;2022-08-16T03:08:50;8.27;;;7.45;;
58214;SDS011;44011;52.218;1.480;2022-08-16T03:11:16;8.75;;;7.85;;
58214;SDS011;44011;52.218;1.480;2022-08-16T03:13:43;9.18;;;8.15;;
58214;SDS011;44011;52.218;1.480;2022-08-16T03:16:10;13.68;;;9.18;;
58214;SDS011;44011;52.218;1.480;2022-08-16T03:18:36;11.23;;;8.20;;
58214;SDS011;44011;52.218;1.480;2022-08-16T03:21:02;9.35;;;8.02;;
58214;SDS011;44011;52.218;1.480;2022-08-16T03:23:28;10.65;;;8.23;;
58214;SDS011;44011;52.218;1.480;2022-08-16T03:25:54;9.27;;;8.13;;
58214;SDS011;44011;52.218;1.480;2022-08-16T03:28:19;9.48;;;8.40;;
58214;SDS011;44011;52.218;1.480;2022-08-16T03:30:45;11.00;;;8.30;;
58214;SDS011;44011;52.218;1.480;2022-08-16T03:33:11;8.40;;;7.57;;
58214;SDS011;44011;52.218;1.480;2022-08-16T03:35:37;9.68;;;8.15;;
58214;SDS011;44011;52.218;1.480;2022-08-16T03:38:05;8.65;;;7.55;;
58214;SDS011;44011;52.218;1.480;2022-08-16T03:40:33;8.05;;;6.63;;
58214;SDS011;44011;52.218;1.480;2022-08-16T03:43:00;9.02;;;7.78;;
58214;SDS011;44011;52.218;1.480;2022-08-16T03:45:30;9.10;;;7.30;;
58214;SDS011;44011;52.218;1.480;2022-08-16T03:47:57;7.70;;;7.00;;
58214;SDS011;44011;52.218;1.480;2022-08-16T03:50:23;9.07;;;7.55;;
58214;SDS011;44011;52.218;1.480;2022-08-16T03:52:49;10.45;;;7.00;;
58214;SDS011;44011;52.218;1.480;2022-08-16T03:55:14;9.95;;;7.78;;
58214;SDS011;44011;52.218;1.480;2022-08-16T03:57:40;8.68;;;7.78;;
58214;SDS011;44011;52.218;1.480;2022-08-16T04:00:07;9.00;;;8.10;;
58214;SDS011;44011;52.218;1.480;2022-08-16T04:02:37;8.45;;;7.65;;
58214;SDS011;44011;52.218;1.480;2022-08-16T04:05:03;8.27;;;7.50;;
58214;SDS011;44011;52.218;1.480;2022-08-16T04:07:30;8.52;;;7.10;;
58214;SDS011;44011;52.218;1.480;2022-08-16T04:09:56;8.30;;;7.50;;
58214;SDS011;44011;52.218;1.480;2022-08-16T04:12:22;9.77;;;7.63;;
58214;SDS011;44011;52.218;1.480;2022-08-16T04:14:48;9.38;;;8.40;;
58214;SDS011;44011;52.218;1.480;2022-08-16T04:17:14;9.70;;;8.70;;
58214;SDS011;44011;52.218;1.480;2022-08-16T04:19:40;12.18;;;8.57;;
58214;SDS011;44011;52.218;1.480;2022-08-16T04:22:07;9.05;;;7.95;;
58214;SDS011;44011;52.218;1.480;2022-08-16T04:24:32;11.35;;;8.18;;
58214;SDS011;44011;52.218;1.480;2022-08-16T04:26:58;10.55;;;7.68;;
58214;SDS011;44011;52.218;1.480;2022-08-16T04:29:24;9.80;;;7.75;;
58214;SDS011;44011;52.218;1.480;2022-08-16T04:31:52;10.07;;;7.60;;
58214;SDS011;44011;52.218;1.480;2022-08-16T04:34:18;9.10;;;7.75;;
58214;SDS011;44011;52.218;1.480;2022-08-16T04:36:44;9.27;;;7.90;;
58214;SDS011;44011;52.218;1.480;2022-08-16T04:39:09;7.88;;;6.93;;
58214;SDS011;44011;52.218;1.480;2022-08-16T04:41:35;11.18;;;8.00;;
58214;SDS011;44011;52.218;1.480;2022-08-16T04:44:00;9.43;;;8.52;;
58214;SDS011;44011;52.218;1.480;2022-08-16T04:46:26;10.55;;;7.22;;
58214;SDS011;44011;52.218;1.480;2022-08-16T04:48:52;8.82;;;7.97;;
58214;SDS011;44011;52.218;1.480;2022-08-16T04:51:18;8.90;;;8.00;;
58214;SDS011;44011;52.218;1.480;2022-08-16T04:53:44;10.30;;;8.45;;
58214;SDS011;44011;52.218;1.480;2022-08-16T04:56:10;10.88;;;9.35;;
58214;SDS011;44011;52.218;1.480;2022-08-16T04:58:35;12.25;;;8.15;;
58214;SDS011;44011;52.218;1.480;2022-08-16T05:01:01;10.20;;;8.40;;
58214;SDS011;44011;52.218;1.480;2022-08-16T05:03:27;10.95;;;8.38;;
58214;SDS011;44011;52.218;1.480;2022-08-16T05:05:53;8.80;;;7.78;;
58214;SDS011;44011;52.218;1.480;2022-08-16T05:08:19;9.73;;;7.97;;
58214;SDS011;44011;52.218;1.480;2022-08-16T05:10:45;9.98;;;8.00;;
58214;SDS011;44011;52.218;1.480;2022-08-16T05:13:10;10.35;;;8.15;;
58214;SDS011;44011;52.218;1.480;2022-08-16T05:15:36;8.88;;;7.47;;
58214;SDS011;44011;52.218;1.480;2022-08-16T05:18:02;9.50;;;7.47;;
58214;SDS011;44011;52.218;1.480;2022-08-16T05:20:28;10.20;;;8.10;;
58214;SDS011;44011;52.218;1.480;2022-08-16T05:22:53;9.18;;;7.70;;
58214;SDS011;44011;52.218;1.480;2022-08-16T05:25:19;9.23;;;8.05;;
58214;SDS011;44011;52.218;1.480;2022-08-16T05:27:45;13.95;;;8.73;;
58214;SDS011;44011;52.218;1.480;2022-08-16T05:30:12;11.40;;;8.55;;
58214;SDS011;44011;52.218;1.480;2022-08-16T05:32:38;12.63;;;8.45;;
58214;SDS011;44011;52.218;1.480;2022-08-16T05:35:06;9.25;;;8.45;;
58214;SDS011;44011;52.218;1.480;2022-08-16T05:37:33;10.88;;;8.63;;
58214;SDS011;44011;52.218;1.480;2022-08-16T05:40:00;8.57;;;7.15;;
58214;SDS011;44011;52.218;1.480;2022-08-16T05:42:26;9.23;;;7.78;;
58214;SDS011;44011;52.218;1.480;2022-08-16T05:44:52;8.70;;;7.80;;
58214;SDS011;44011;52.218;1.480;2022-08-16T05:47:17;11.25;;;8.77;;
58214;SDS011;44011;52.218;1.480;2022-08-16T05:49:43;15.10;;;9.63;;
58214;SDS011;44011;52.218;1.480;2022-08-16T05:52:09;12.90;;;9.48;;
58214;SDS011;44011;52.218;1.480;2022-08-16T05:54:35;14.35;;;10.15;;
58214;SDS011;44011;52.218;1.480;2022-08-16T05:57:00;10.15;;;8.98;;
58214;SDS011;44011;52.218;1.480;2022-08-16T05:59:26;10.73;;;9.63;;
58214;SDS011;44011;52.218;1.480;2022-08-16T06:01:52;10.43;;;9.20;;
58214;SDS011;44011;52.218;1.480;2022-08-16T06:04:18;10.43;;;8.10;;
58214;SDS011;44011;52.218;1.480;2022-08-16T06:06:44;10.02;;;8.43;;
58214;SDS011;44011;52.218;1.480;2022-08-16T06:09:11;10.18;;;9.00;;
58214;SDS011;44011;52.218;1.480;2022-08-16T06:11:37;12.98;;;9.73;;
58214;SDS011;44011;52.218;1.480;2022-08-16T06:14:04;9.15;;;8.30;;
58214;SDS011;44011;52.218;1.480;2022-08-16T06:16:30;11.23;;;9.52;;
58214;SDS011;44011;52.218;1.480;2022-08-16T06:18:56;13.32;;;10.23;;
58214;SDS011;44011;52.218;1.480;2022-08-16T06:21:21;10.43;;;9.20;;
58214;SDS011;44011;52.218;1.480;2022-08-16T06:23:47;13.90;;;9.90;;
58214;SDS011;44011;52.218;1.480;2022-08-16T06:26:13;13.07;;;9.93;;
58214;SDS011;44011;52.218;1.480;2022-08-16T06:28:39;12.73;;;10.45;;
58214;SDS011;44011;52.218;1.480;2022-08-16T06:31:06;11.80;;;9.35;;
58214;SDS011;44011;52.218;1.480;2022-08-16T06:33:33;13.55;;;11.85;;
58214;SDS011;44011;52.218;1.480;2022-08-16T06:35:58;12.13;;;9.73;;
58214;SDS011;44011;52.218;1.480;2022-08-16T06:38:24;14.85;;;10.95;;
58214;SDS011;44011;52.218;1.480;2022-08-16T06:40:49;11.30;;;10.13;;
58214;SDS011;44011;52.218;1.480;2022-08-16T06:43:15;16.13;;;10.75;;
58214;SDS011;44011;52.218;1.480;2022-08-16T06:45:41;12.18;;;9.75;;
58214;SDS011;44011;52.218;1.480;2022-08-16T06:48:08;12.40;;;9.02;;
58214;SDS011;44011;52.218;1.480;2022-08-16T06:50:34;10.60;;;8.02;;
58214;SDS011;44011;52.218;1.480;2022-08-16T06:53:00;9.48;;;8.45;;
58214;SDS011;44011;52.218;1.480;2022-08-16T06:55:27;10.60;;;9.15;;
58214;SDS011;44011;52.218;1.480;2022-08-16T06:57:53;10.13;;;8.65;;
58214;SDS011;44011;52.218;1.480;2022-08-16T07:00:19;8.93;;;7.63;;
58214;SDS011;44011;52.218;1.480;2022-08-16T07:02:45;9.00;;;7.50;;
58214;SDS011;44011;52.218;1.480;2022-08-16T07:05:11;10.90;;;8.05;;
58214;SDS011;44011;52.218;1.480;2022-08-16T07:07:38;14.57;;;9.30;;
58214;SDS011;44011;52.218;1.480;2022-08-16T07:10:05;12.93;;;9.65;;
58214;SDS011;44011;52.218;1.480;2022-08-16T07:12:31;10.88;;;8.90;;
58214;SDS011;44011;52.218;1.480;2022-08-16T07:14:57;8.73;;;7.93;;
58214;SDS011;44011;52.218;1.480;2022-08-16T07:17:24;11.38;;;8.63;;
58214;SDS011;44011;52.218;1.480;2022-08-16T07:19:51;8.82;;;8.00;;
58214;SDS011;44011;52.218;1.480;2022-08-16T07:22:17;10.13;;;8.43;;
58214;SDS011;44011;52.218;1.480;2022-08-16T07:24:43;8.70;;;7.82;;
58214;SDS011;44011;52.218;1.480;2022-08-16T07:27:09;11.25;;;8.45;;
58214;SDS011;44011;52.218;1.480;2022-08-16T07:29:36;11.65;;;9.30;;
58214;SDS011;44011;52.218;1.480;2022-08-16T07:32:02;9.77;;;8.70;;
58214;SDS011;44011;52.218;1.480;2022-08-16T07:34:28;9.93;;;8.60;;
58214;SDS011;44011;52.218;1.480;2022-08-16T07:36:54;10.23;;;9.15;;
58214;SDS011;44011;52.218;1.480;2022-08-16T07:39:19;13.57;;;9.00;;
58214;SDS011;44011;52.218;1.480;2022-08-16T07:41:45;10.23;;;8.18;;
58214;SDS011;44011;52.218;1.480;2022-08-16T07:44:11;9.35;;;8.45;;
58214;SDS011;44011;52.218;1.480;2022-08-16T07:46:36;10.10;;;8.02;;
58214;SDS011;44011;52.218;1.480;2022-08-16T07:49:03;9.57;;;7.90;;
58214;SDS011;44011;52.218;1.480;2022-08-16T07:51:29;14.43;;;8.55;;
58214;SDS011;44011;52.218;1.480;2022-08-16T07:53:59;11.82;;;8.82;;
58214;SDS011;44011;52.218;1.480;2022-08-16T07:56:27;11.65;;;9.07;;
58214;SDS011;44011;52.218;1.480;2022-08-16T07:58:53;9.68;;;8.68;;
58214;SDS011;44011;52.218;1.480;2022-08-16T08:01:19;10.50;;;7.43;;
58214;SDS011;44011;52.218;1.480;2022-08-16T08:03:47;13.77;;;8.88;;
58214;SDS011;44011;52.218;1.480;2022-08-16T08:06:13;11.05;;;8.35;;
58214;SDS011;44011;52.218;1.480;2022-08-16T08:08:39;10.98;;;7.50;;
58214;SDS011;44011;52.218;1.480;2022-08-16T08:11:05;10.30;;;8.15;;
58214;SDS011;44011;52.218;1.480;2022-08-16T08:13:31;18.67;;;9.48;;
58214;SDS011;44011;52.218;1.480;2022-08-16T08:15:56;22.55;;;8.02;;
58214;SDS011;44011;52.218;1.480;2022-08-16T08:18:22;12.90;;;8.27;;
58214;SDS011;44011;52.218;1.480;2022-08-16T08:20:48;8.80;;;7.50;;
58214;SDS011;44011;52.218;1.480;2022-08-16T08:23:13;16.90;;;8.25;;
58214;SDS011;44011;52.218;1.480;2022-08-16T08:25:40;10.07;;;7.95;;
58214;SDS011;44011;52.218;1.480;2022-08-16T08:28:07;8.80;;;7.90;;
58214;SDS011;44011;52.218;1.480;2022-08-16T08:30:32;10.77;;;7.60;;
58214;SDS011;44011;52.218;1.480;2022-08-16T08:32:58;8.35;;;7.45;;
58214;SDS011;44011;52.218;1.480;2022-08-16T08:35:24;9.57;;;7.97;;
58214;SDS011;44011;52.218;1.480;2022-08-16T08:37:49;10.35;;;7.55;;
58214;SDS011;44011;52.218;1.480;2022-08-16T08:40:15;8.52;;;7.60;;
58214;SDS011;44011;52.218;1.480;2022-08-16T08:42:41;12.93;;;8.43;;
58214;SDS011;44011;52.218;1.480;2022-08-16T08:45:08;9.55;;;7.18;;
58214;SDS011;44011;52.218;1.480;2022-08-16T08:47:35;15.65;;;8.25;;
58214;SDS011;44011;52.218;1.480;2022-08-16T08:50:02;17.27;;;7.10;;
58214;SDS011;44011;52.218;1.480;2022-08-16T08:52:30;8.25;;;6.72;;
58214;SDS011;44011;52.218;1.480;2022-08-16T08:54:56;11.38;;;7.95;;
58214;SDS011;44011;52.218;1.480;2022-08-16T08:57:22;8.18;;;7.32;;
58214;SDS011;44011;52.218;1.480;2022-08-16T08:59:48;8.82;;;7.55;;
58214;SDS011;44011;52.218;1.480;2022-08-16T09:02:13;9.68;;;8.68;;
58214;SDS011;44011;52.218;1.480;2022-08-16T09:04:44;7.57;;;6.88;;
58214;SDS011;44011;52.218;1.480;2022-08-16T09:07:10;8.75;;;7.90;;
58214;SDS011;44011;52.218;1.480;2022-08-16T09:09:35;9.10;;;8.20;;
58214;SDS011;44011;52.218;1.480;2022-08-16T09:12:01;9.68;;;8.43;;
58214;SDS011;44011;52.218;1.480;2022-08-16T09:14:27;8.45;;;7.65;;
58214;SDS011;44011;52.218;1.480;2022-08-16T09:16:53;7.13;;;6.43;;
58214;SDS011;44011;52.218;1.480;2022-08-16T09:19:19;17.15;;;7.03;;
58214;SDS011;44011;52.218;1.480;2022-08-16T09:21:46;8.38;;;7.45;;
58214;SDS011;44011;52.218;1.480;2022-08-16T09:24:13;7.28;;;6.57;;
58214;SDS011;44011;52.218;1.480;2022-08-16T09:26:40;7.05;;;6.32;;
58214;SDS011;44011;52.218;1.480;2022-08-16T09:29:05;8.65;;;6.65;;
58214;SDS011;44011;52.218;1.480;2022-08-16T09:31:31;6.63;;;5.88;;
58214;SDS011;44011;52.218;1.480;2022-08-16T09:33:57;6.35;;;5.80;;
58214;SDS011;44011;52.218;1.480;2022-08-16T09:36:23;11.25;;;6.20;;
58214;SDS011;44011;52.218;1.480;2022-08-16T09:38:49;6.47;;;5.95;;
58214;SDS011;44011;52.218;1.480;2022-08-16T09:41:14;7.18;;;6.53;;
58214;SDS011;44011;52.218;1.480;2022-08-16T09:43:41;6.93;;;6.32;;
58214;SDS011;44011;52.218;1.480;2022-08-16T09:46:06;7.93;;;6.22;;
58214;SDS011;44011;52.218;1.480;2022-08-16T09:48:35;10.23;;;6.72;;
58214;SDS011;44011;52.218;1.480;2022-08-16T09:51:09;8.95;;;6.80;;
58214;SDS011;44011;52.218;1.480;2022-08-16T09:53:35;7.45;;;6.75;;
58214;SDS011;44011;52.218;1.480;2022-08-16T09:56:02;6.72;;;6.15;;
58214;SDS011;44011;52.218;1.480;2022-08-16T09:58:29;7.80;;;6.47;;
58214;SDS011;44011;52.218;1.480;2022-08-16T10:00:55;8.68;;;5.97;;
58214;SDS011;44011;52.218;1.480;2022-08-16T10:03:20;6.88;;;6.22;;
58214;SDS011;44011;52.218;1.480;2022-08-16T10:05:47;7.00;;;6.22;;
58214;SDS011;44011;52.218;1.480;2022-08-16T10:08:13;6.60;;;5.90;;
58214;SDS011;44011;52.218;1.480;2022-08-16T10:10:40;8.30;;;5.35;;
58214;SDS011;44011;52.218;1.480;2022-08-16T10:13:26;6.15;;;5.63;;
58214;SDS011;44011;52.218;1.480;2022-08-16T10:15:52;6.03;;;5.47;;
58214;SDS011;44011;52.218;1.480;2022-08-16T10:18:24;7.57;;;6.07;;
58214;SDS011;44011;52.218;1.480;2022-08-16T10:20:51;6.65;;;6.07;;
58214;SDS011;44011;52.218;1.480;2022-08-16T10:23:17;8.23;;;5.90;;
58214;SDS011;44011;52.218;1.480;2022-08-16T10:25:44;7.45;;;5.40;;
58214;SDS011;44011;52.218;1.480;2022-08-16T10:28:10;5.97;;;5.45;;
58214;SDS011;44011;52.218;1.480;2022-08-16T10:30:36;6.00;;;5.57;;
58214;SDS011;44011;52.218;1.480;2022-08-16T10:33:03;6.43;;;5.72;;
58214;SDS011;44011;52.218;1.480;2022-08-16T10:35:29;7.68;;;5.95;;
58214;SDS011;44011;52.218;1.480;2022-08-16T10:37:55;9.38;;;5.70;;
58214;SDS011;44011;52.218;1.480;2022-08-16T10:40:20;6.70;;;6.05;;
58214;SDS011;44011;52.218;1.480;2022-08-16T10:42:46;6.53;;;5.90;;
58214;SDS011;44011;52.218;1.480;2022-08-16T10:45:13;7.25;;;5.53;;
58214;SDS011;44011;52.218;1.480;2022-08-16T10:47:39;6.40;;;5.50;;
58214;SDS011;44011;52.218;1.480;2022-08-16T10:50:05;6.88;;;5.40;;
58214;SDS011;44011;52.218;1.480;2022-08-16T10:52:32;5.63;;;4.90;;
58214;SDS011;44011;52.218;1.480;2022-08-16T10:54:58;6.88;;;6.03;;
58214;SDS011;44011;52.218;1.480;2022-08-16T10:57:25;7.25;;;6.35;;
58214;SDS011;44011;52.218;1.480;2022-08-16T10:59:53;7.95;;;5.78;;
58214;SDS011;44011;52.218;1.480;2022-08-16T11:02:19;6.75;;;6.07;;
58214;SDS011;44011;52.218;1.480;2022-08-16T11:04:46;6.28;;;5.68;;
58214;SDS011;44011;52.218;1.480;2022-08-16T11:07:11;6.63;;;6.00;;
58214;SDS011;44011;52.218;1.480;2022-08-16T11:09:37;7.55;;;6.80;;
58214;SDS011;44011;52.218;1.480;2022-08-16T11:12:03;8.68;;;7.10;;
58214;SDS011;44011;52.218;1.480;2022-08-16T11:14:30;7.95;;;6.95;;
58214;SDS011;44011;52.218;1.480;2022-08-16T11:16:57;9.18;;;7.10;;
58214;SDS011;44011;52.218;1.480;2022-08-16T11:19:24;8.57;;;7.80;;
58214;SDS011;44011;52.218;1.480;2022-08-16T11:21:50;9.35;;;7.30;;
58214;SDS011;44011;52.218;1.480;2022-08-16T11:24:15;13.00;;;8.30;;
58214;SDS011;44011;52.218;1.480;2022-08-16T11:26:41;9.75;;;8.18;;
58214;SDS011;44011;52.218;1.480;2022-08-16T11:29:07;14.13;;;6.93;;
58214;SDS011;44011;52.218;1.480;2022-08-16T11:31:34;10.20;;;8.48;;
58214;SDS011;44011;52.218;1.480;2022-08-16T11:33:59;10.95;;;7.97;;
58214;SDS011;44011;52.218;1.480;2022-08-16T11:36:25;11.98;;;7.80;;
58214;SDS011;44011;52.218;1.480;2022-08-16T11:38:50;10.02;;;8.98;;
58214;SDS011;44011;52.218;1.480;2022-08-16T11:41:16;10.88;;;8.45;;
58214;SDS011;44011;52.218;1.480;2022-08-16T11:43:42;11.18;;;8.50;;
58214;SDS011;44011;52.218;1.480;2022-08-16T11:46:10;8.85;;;7.95;;
58214;SDS011;44011;52.218;1.480;2022-08-16T11:48:39;9.00;;;8.07;;
58214;SDS011;44011;52.218;1.480;2022-08-16T11:51:04;9.95;;;8.60;;
58214;SDS011;44011;52.218;1.480;2022-08-16T11:53:30;12.93;;;9.35;;
58214;SDS011;44011;52.218;1.480;2022-08-16T11:55:57;11.85;;;8.40;;
58214;SDS011;44011;52.218;1.480;2022-08-16T11:58:24;10.38;;;8.68;;
58214;SDS011;44011;52.218;1.480;2022-08-16T12:00:51;15.85;;;7.95;;
58214;SDS011;44011;52.218;1.480;2022-08-16T12:03:17;9.73;;;7.55;;
58214;SDS011;44011;52.218;1.480;2022-08-16T12:05:43;8.30;;;7.50;;
58214;SDS011;44011;52.218;1.480;2022-08-16T12:08:10;10.88;;;8.80;;
58214;SDS011;44011;52.218;1.480;2022-08-16T12:10:36;8.20;;;7.45;;
58214;SDS011;44011;52.218;1.480;2022-08-16T12:13:04;11.63;;;9.00;;
58214;SDS011;44011;52.218;1.480;2022-08-16T12:15:30;9.52;;;8.65;;
58214;SDS011;44011;52.218;1.480;2022-08-16T12:17:56;8.48;;;7.43;;
58214;SDS011;44011;52.218;1.480;2022-08-16T12:20:27;8.90;;;7.95;;
58214;SDS011;44011;52.218;1.480;2022-08-16T12:22:54;9.95;;;6.97;;
58214;SDS011;44011;52.218;1.480;2022-08-16T12:25:28;8.38;;;7.57;;
58214;SDS011;44011;52.218;1.480;2022-08-16T12:27:54;8.03;;;7.23;;
58214;SDS011;44011;52.218;1.480;2022-08-16T12:30:27;7.07;;;6.47;;
58214;SDS011;44011;52.218;1.480;2022-08-16T12:32:55;7.97;;;6.82;;
58214;SDS011;44011;52.218;1.480;2022-08-16T12:35:23;12.07;;;6.45;;
58214;SDS011;44011;52.218;1.480;2022-08-16T12:37:49;8.18;;;7.05;;
58214;SDS011;44011;52.218;1.480;2022-08-16T12:40:17;8.27;;;7.40;;
58214;SDS011;44011;52.218;1.480;2022-08-16T12:42:45;8.43;;;7.00;;
58214;SDS011;44011;52.218;1.480;2022-08-16T12:45:14;9.05;;;8.15;;
58214;SDS011;44011;52.218;1.480;2022-08-16T12:47:41;8.18;;;7.40;;
58214;SDS011;44011;52.218;1.480;2022-08-16T12:50:25;10.00;;;8.95;;
58214;SDS011;44011;52.218;1.480;2022-08-16T12:52:51;10.05;;;9.05;;
58214;SDS011;44011;52.218;1.480;2022-08-16T12:55:17;9.75;;;7.75;;
58214;SDS011;44011;52.218;1.480;2022-08-16T12:57:42;17.05;;;10.50;;
58214;SDS011;44011;52.218;1.480;2022-08-16T13:00:10;12.93;;;8.85;;
58214;SDS011;44011;52.218;1.480;2022-08-16T13:02:38;12.90;;;8.93;;
58214;SDS011;44011;52.218;1.480;2022-08-16T13:05:05;11.70;;;9.10;;
58214;SDS011;44011;52.218;1.480;2022-08-16T13:07:31;12.15;;;8.95;;
58214;SDS011;44011;52.218;1.480;2022-08-16T13:09:57;9.98;;;8.90;;
58214;SDS011;44011;52.218;1.480;2022-08-16T13:12:33;9.38;;;8.38;;
58214;SDS011;44011;52.218;1.480;2022-08-16T13:15:06;8.52;;;7.72;;
58214;SDS011;44011;52.218;1.480;2022-08-16T13:17:35;11.13;;;7.60;;
58214;SDS011;44011;52.218;1.480;2022-08-16T13:20:03;10.85;;;8.88;;
58214;SDS011;44011;52.218;1.480;2022-08-16T13:22:30;9.45;;;8.55;;
58214;SDS011;44011;52.218;1.480;2022-08-16T13:24:55;11.88;;;8.05;;
58214;SDS011;44011;52.218;1.480;2022-08-16T13:27:21;10.80;;;7.93;;
58214;SDS011;44011;52.218;1.480;2022-08-16T13:29:46;7.32;;;6.63;;
58214;SDS011;44011;52.218;1.480;2022-08-16T13:32:12;5.95;;;5.40;;
58214;SDS011;44011;52.218;1.480;2022-08-16T13:34:37;8.32;;;5.68;;
58214;SDS011;44011;52.218;1.480;2022-08-16T13:37:03;7.85;;;5.47;;
58214;SDS011;44011;52.218;1.480;2022-08-16T13:39:29;10.07;;;6.65;;
58214;SDS011;44011;52.218;1.480;2022-08-16T13:41:56;9.55;;;6.82;;
58214;SDS011;44011;52.218;1.480;2022-08-16T13:44:21;11.35;;;9.05;;
58214;SDS011;44011;52.218;1.480;2022-08-16T13:46:47;13.23;;;11.93;;
58214;SDS011;44011;52.218;1.480;2022-08-16T13:49:13;16.65;;;12.57;;
58214;SDS011;44011;52.218;1.480;2022-08-16T13:51:39;20.45;;;13.88;;
58214;SDS011;44011;52.218;1.480;2022-08-16T13:54:05;18.35;;;14.88;;
58214;SDS011;44011;52.218;1.480;2022-08-16T13:56:31;15.93;;;14.10;;
58214;SDS011;44011;52.218;1.480;2022-08-16T13:58:58;19.98;;;15.93;;
58214;SDS011;44011;52.218;1.480;2022-08-16T14:01:24;14.57;;;12.35;;
58214;SDS011;44011;52.218;1.480;2022-08-16T14:03:49;15.38;;;13.27;;
58214;SDS011;44011;52.218;1.480;2022-08-16T14:06:15;13.20;;;11.93;;
58214;SDS011;44011;52.218;1.480;2022-08-16T14:08:41;21.52;;;14.85;;
58214;SDS011;44011;52.218;1.480;2022-08-16T14:11:08;16.90;;;15.20;;
58214;SDS011;44011;52.218;1.480;2022-08-16T14:13:35;17.08;;;14.57;;
58214;SDS011;44011;52.218;1.480;2022-08-16T14:16:00;22.75;;;18.02;;
58214;SDS011;44011;52.218;1.480;2022-08-16T14:18:26;19.48;;;17.17;;
58214;SDS011;44011;52.218;1.480;2022-08-16T14:20:52;21.23;;;17.92;;
58214;SDS011;44011;52.218;1.480;2022-08-16T14:23:18;20.33;;;16.98;;
58214;SDS011;44011;52.218;1.480;2022-08-16T14:25:43;20.92;;;17.17;;
58214;SDS011;44011;52.218;1.480;2022-08-16T14:28:09;20.58;;;16.65;;
58214;SDS011;44011;52.218;1.480;2022-08-16T14:30:34;19.92;;;15.50;;
58214;SDS011;44011;52.218;1.480;2022-08-16T14:33:00;15.85;;;13.10;;
58214;SDS011;44011;52.218;1.480;2022-08-16T14:35:29;11.57;;;10.38;;
58214;SDS011;44011;52.218;1.480;2022-08-16T14:37:55;10.93;;;9.75;;
58214;SDS011;44011;52.218;1.480;2022-08-16T14:40:21;11.18;;;9.68;;